Time;durP1;ratioP1;P1;durP2;ratioP2;P2;SDS_P1;SDS_P2;PMS_P1;PMS_P2;Temp;Humidity;BMP_temperature;BMP_pressure;BME280_temperature;BME280_humidity;BME280_pressure;Samples;Min_cycle;Max_cycle;Signal;HPM_P1;HPM_P2
2021/03/16 00:00:26;;;;;;;12.52;7.97;;;;;;;6.15;100.00;94975.25;5063012;28;20039;-64
2021/03/16 00:03:10;;;;;;;16.10;8.95;;;;;;;5.83;100.00;94950.50;5063327;28;20887;-65
2021/03/16 00:05:54;;;;;;;15.68;9.02;;;;;;;5.09;100.00;94825.28;5061961;28;20525;-65
2021/03/16 00:08:37;;;;;;;15.05;9.10;;;;;;;6.01;100.00;94967.78;5063857;28;20479;-64
2021/03/16 00:11:21;;;;;;;17.05;8.85;;;;;;;5.91;100.00;94962.31;5063238;28;20477;-63
2021/03/16 00:14:05;;;;;;;15.93;8.82;;;;;;;5.75;100.00;94968.13;5063661;28;20044;-63
2021/03/16 00:16:51;;;;;;;15.20;8.93;;;;;;;5.74;100.00;94968.50;5063015;28;20446;-63
2021/03/16 00:19:35;;;;;;;14.52;9.13;;;;;;;5.88;100.00;94957.59;5063679;28;20113;-64
2021/03/16 00:22:19;;;;;;;15.43;9.00;;;;;;;5.90;100.00;94966.22;5062789;28;20051;-64
2021/03/16 00:25:04;;;;;;;11.85;7.07;;;;;;;5.89;100.00;94970.16;5063500;28;20182;-64
2021/03/16 00:27:48;;;;;;;12.93;7.90;;;;;;;5.82;100.00;94972.88;5063823;28;20043;-63
2021/03/16 00:30:32;;;;;;;15.02;8.48;;;;;;;5.91;100.00;94967.81;5063285;28;20040;-64
2021/03/16 00:33:16;;;;;;;13.55;8.63;;;;;;;6.00;100.00;94966.25;5063559;28;20128;-64
2021/03/16 00:36:00;;;;;;;14.07;8.25;;;;;;;5.71;100.00;94903.38;5061590;28;20043;-64
2021/03/16 00:38:44;;;;;;;13.57;8.43;;;;;;;5.95;100.00;94924.63;5063474;28;20123;-64
2021/03/16 00:41:28;;;;;;;12.60;9.25;;;;;;;6.19;100.00;94967.81;5062360;28;20593;-64
2021/03/16 00:44:12;;;;;;;19.90;12.13;;;;;;;6.25;100.00;94970.94;5063434;28;20044;-62
2021/03/16 00:46:56;;;;;;;29.70;14.45;;;;;;;6.34;100.00;94969.38;5062920;28;20063;-64
2021/03/16 00:49:40;;;;;;;23.98;12.57;;;;;;;6.04;100.00;94922.25;5063476;28;20134;-64
2021/03/16 00:52:24;;;;;;;18.60;11.70;;;;;;;6.35;100.00;94959.97;5061927;28;20055;-65
2021/03/16 00:55:08;;;;;;;23.17;12.57;;;;;;;6.37;100.00;94956.81;5054417;28;20110;-65
2021/03/16 00:57:52;;;;;;;18.92;11.25;;;;;;;6.26;100.00;94967.78;5043142;28;20036;-64
2021/03/16 01:00:36;;;;;;;16.45;9.00;;;;;;;6.00;100.00;94943.47;5042685;28;20091;-64
2021/03/16 01:03:21;;;;;;;18.08;10.90;;;;;;;6.16;100.00;94963.09;5042983;28;20047;-62
2021/03/16 01:06:05;;;;;;;19.98;11.38;;;;;;;6.23;100.00;94963.09;5042421;28;20056;-64
2021/03/16 01:08:49;;;;;;;20.33;13.40;;;;;;;6.26;100.00;94973.28;5041908;28;20044;-63
2021/03/16 01:11:34;;;;;;;18.42;10.43;;;;;;;4.86;100.00;94759.78;5042744;28;20086;-63
2021/03/16 01:14:17;;;;;;;19.60;10.55;;;;;;;6.21;100.00;94959.97;5043938;28;20114;-65
2021/03/16 01:17:02;;;;;;;13.90;8.90;;;;;;;5.70;100.00;94874.34;5044190;28;20047;-64
2021/03/16 01:19:46;;;;;;;12.98;8.05;;;;;;;6.14;100.00;94959.94;5046418;28;20530;-64
2021/03/16 01:22:30;;;;;;;11.10;7.18;;;;;;;6.09;100.00;94985.06;5044866;28;20036;-63
2021/03/16 01:25:14;;;;;;;17.27;9.30;;;;;;;6.02;100.00;94985.09;5045947;28;20554;-63
2021/03/16 01:27:58;;;;;;;14.32;9.30;;;;;;;4.78;100.00;94829.50;5046238;28;20408;-64
2021/03/16 01:30:42;;;;;;;17.13;7.65;;;;;;;4.86;100.00;94907.09;5044765;28;20522;-63
2021/03/16 01:33:26;;;;;;;15.02;8.23;;;;;;;4.62;100.00;94914.03;5045125;28;20036;-63
2021/03/16 01:36:11;;;;;;;15.02;7.95;;;;;;;5.10;100.00;95018.88;5045912;28;20420;-63
2021/03/16 01:38:55;;;;;;;15.85;9.10;;;;;;;4.66;100.00;94964.97;5045951;28;20486;-64
2021/03/16 01:41:39;;;;;;;17.50;10.25;;;;;;;4.85;100.00;94983.13;5045239;28;20115;-64
2021/03/16 01:44:23;;;;;;;14.68;8.13;;;;;;;4.81;100.00;95003.44;5046284;28;20044;-66
2021/03/16 01:47:08;;;;;;;17.92;9.10;;;;;;;4.92;100.00;95009.75;5044018;28;20072;-65
2021/03/16 01:49:56;;;;;;;15.73;8.70;;;;;;;5.11;100.00;95067.09;5045708;28;20048;-65
2021/03/16 01:52:42;;;;;;;17.67;8.68;;;;;;;5.24;100.00;94994.25;5045835;28;20106;-64
2021/03/16 01:55:28;;;;;;;11.52;7.05;;;;;;;5.12;100.00;95000.84;5053931;28;20038;-67
2021/03/16 01:58:12;;;;;;;7.82;4.75;;;;;;;5.20;100.00;94996.22;5064909;28;20055;-66
2021/03/16 02:00:56;;;;;;;11.82;7.05;;;;;;;4.90;100.00;94921.63;5065649;28;20094;-66
2021/03/16 02:03:40;;;;;;;7.22;5.05;;;;;;;5.43;100.00;95002.97;5064726;28;20142;-68
2021/03/16 02:06:54;;;;;;;10.90;5.82;;;;;;;5.12;100.00;95000.09;5064899;28;20573;-67
2021/03/16 02:09:44;;;;;;;13.98;6.95;;;;;;;5.05;100.00;95002.78;5065939;28;20051;-68
2021/03/16 02:12:43;;;;;;;16.88;9.95;;;;;;;4.97;100.00;95007.47;5064657;28;20031;-68
2021/03/16 02:15:36;;;;;;;14.27;7.93;;;;;;;3.74;100.00;94886.09;5064620;28;20591;-68
2021/03/16 02:18:23;;;;;;;20.75;9.82;;;;;;;4.57;100.00;95011.13;5065242;28;20082;-67
2021/03/16 02:21:11;;;;;;;17.02;9.75;;;;;;;3.95;100.00;94910.88;5063543;28;20078;-67
2021/03/16 02:24:16;;;;;;;9.98;5.85;;;;;;;4.46;100.00;95010.28;5064275;28;20051;-66
2021/03/16 02:27:11;;;;;;;11.38;6.97;;;;;;;3.79;100.00;94883.00;5063438;28;20157;-67
2021/03/16 02:29:59;;;;;;;17.40;9.10;;;;;;;4.57;100.00;94974.69;5065288;28;20056;-67
2021/03/16 02:32:46;;;;;;;15.07;8.13;;;;;;;4.89;100.00;95005.84;5077958;28;20101;-66
2021/03/16 02:35:31;;;;;;;20.58;10.48;;;;;;;4.64;100.00;94934.44;5064158;28;20141;-66
2021/03/16 02:38:19;;;;;;;15.48;8.00;;;;;;;5.07;100.00;95005.94;5065130;28;20064;-66
2021/03/16 02:41:07;;;;;;;8.30;4.63;;;;;;;4.56;100.00;94924.59;5062887;28;20129;-66
2021/03/16 02:43:52;;;;;;;7.05;3.22;;;;;;;5.08;100.00;95002.81;5063829;28;20051;-66
2021/03/16 02:46:43;;;;;;;11.13;5.78;;;;;;;4.91;100.00;95002.72;5064201;28;20051;-67
2021/03/16 02:49:31;;;;;;;7.20;4.00;;;;;;;4.76;100.00;95007.31;5064874;28;20702;-68
2021/03/16 02:52:19;;;;;;;15.82;7.57;;;;;;;4.85;100.00;95015.22;5064211;28;20101;-66
2021/03/16 02:55:05;;;;;;;31.77;11.90;;;;;;;4.78;100.00;95012.44;5057622;28;20094;-66
2021/03/16 02:57:51;;;;;;;13.07;5.82;;;;;;;4.79;100.00;95011.28;5043805;28;20043;-65
2021/03/16 03:00:36;;;;;;;25.50;11.93;;;;;;;4.74;100.00;95011.63;5044025;28;20096;-66
2021/03/16 03:03:23;;;;;;;63.08;26.38;;;;;;;4.85;100.00;95017.97;5044885;28;20039;-66
2021/03/16 03:06:09;;;;;;;31.60;11.90;;;;;;;3.94;100.00;94884.66;5044156;28;20063;-66
2021/03/16 03:08:54;;;;;;;95.28;34.50;;;;;;;4.77;100.00;95024.56;5044386;28;20454;-65
2021/03/16 03:11:38;;;;;;;17.70;9.38;;;;;;;4.65;100.00;95018.25;5043514;28;20048;-65
2021/03/16 03:14:22;;;;;;;16.23;8.40;;;;;;;4.75;100.00;95015.94;5044644;28;20044;-66
2021/03/16 03:17:07;;;;;;;30.23;15.25;;;;;;;4.76;100.00;95017.53;5043738;28;20140;-66
2021/03/16 03:19:51;;;;;;;17.42;8.90;;;;;;;4.14;100.00;94929.78;5044235;28;20511;-66
2021/03/16 03:22:42;;;;;;;13.80;7.97;;;;;;;4.86;100.00;95014.03;5043672;28;20530;-66
2021/03/16 03:25:32;;;;;;;8.88;4.38;;;;;;;4.90;100.00;95029.34;5043538;28;20146;-67
2021/03/16 03:28:26;;;;;;;8.32;5.25;;;;;;;4.90;100.00;95023.88;5044679;28;20175;-68
2021/03/16 03:31:11;;;;;;;7.35;3.83;;;;;;;4.34;100.00;94957.72;5043377;28;20501;-66
2021/03/16 03:33:57;;;;;;;6.90;3.78;;;;;;;4.87;100.00;95029.34;5044487;28;20052;-65
2021/03/16 03:36:43;;;;;;;18.88;9.93;;;;;;;4.72;100.00;95000.25;5042518;28;20043;-65
2021/03/16 03:39:30;;;;;;;6.20;3.55;;;;;;;4.28;100.00;94959.25;5041637;28;20064;-66
2021/03/16 03:42:17;;;;;;;7.53;4.43;;;;;;;4.20;100.00;94942.00;5043276;28;20109;-65
2021/03/16 03:45:04;;;;;;;12.77;6.93;;;;;;;4.90;100.00;95039.56;5043550;28;20314;-66
2021/03/16 03:47:50;;;;;;;11.60;5.60;;;;;;;5.01;100.00;95032.16;5043761;28;20106;-65
2021/03/16 03:50:36;;;;;;;8.43;4.45;;;;;;;4.50;100.00;94975.44;5043488;28;20408;-66
2021/03/16 03:53:20;;;;;;;12.15;7.68;;;;;;;5.05;100.00;95035.72;5043769;28;20121;-65
2021/03/16 03:56:07;;;;;;;8.48;5.90;;;;;;;5.04;100.00;95017.69;5043100;28;20482;-66
2021/03/16 03:58:52;;;;;;;5.85;4.47;;;;;;;5.11;100.00;95039.66;5043840;28;20527;-66
2021/03/16 04:01:36;;;;;;;12.07;5.47;;;;;;;4.97;98.88;95001.19;5042909;28;20047;-67
2021/03/16 04:04:21;;;;;;;9.65;4.45;;;;;;;4.87;97.91;95018.38;5043715;28;20063;-66
2021/03/16 04:07:09;;;;;;;4.65;2.85;;;;;;;4.93;97.95;95030.56;5041699;28;20066;-66
2021/03/16 04:09:56;;;;;;;7.72;4.38;;;;;;;4.58;99.50;94985.28;5042149;28;20040;-67
2021/03/16 04:12:40;;;;;;;10.63;5.55;;;;;;;4.66;100.00;95011.56;5043886;28;20060;-66
2021/03/16 04:15:25;;;;;;;11.68;8.15;;;;;;;4.57;100.00;94993.88;5043181;28;20135;-69
2021/03/16 04:18:11;;;;;;;11.43;6.32;;;;;;;4.43;100.00;94971.88;5043794;28;20052;-69
2021/03/16 04:20:55;;;;;;;7.78;5.00;;;;;;;4.97;100.00;95056.03;5043287;28;20048;-67
2021/03/16 04:23:40;;;;;;;12.38;7.35;;;;;;;5.04;100.00;95034.16;5043258;28;20077;-68
2021/03/16 04:26:25;;;;;;;17.98;10.77;;;;;;;4.91;100.00;95008.19;5041572;28;20170;-68
2021/03/16 04:29:09;;;;;;;13.27;7.05;;;;;;;4.97;100.00;95045.06;5043448;28;20048;-66
2021/03/16 04:31:53;;;;;;;10.55;5.03;;;;;;;4.83;100.00;95018.34;5042881;28;20085;-66
2021/03/16 04:34:37;;;;;;;8.85;4.72;;;;;;;4.83;100.00;95039.50;5043572;28;20461;-66
2021/03/16 04:37:21;;;;;;;6.45;3.92;;;;;;;4.82;100.00;95038.69;5042387;28;20041;-66
2021/03/16 04:40:08;;;;;;;6.35;3.75;;;;;;;4.75;100.00;95044.16;5042827;28;20531;-67
2021/03/16 04:42:52;;;;;;;9.20;4.78;;;;;;;4.58;100.00;95067.53;5056218;28;21017;-66
2021/03/16 04:45:37;;;;;;;9.30;5.00;;;;;;;4.63;100.00;95063.66;5041631;28;20624;-68
2021/03/16 04:48:21;;;;;;;7.70;3.63;;;;;;;4.68;100.00;95065.25;5041856;28;20044;-66
2021/03/16 04:51:06;;;;;;;6.68;3.88;;;;;;;4.66;100.00;95063.66;5045540;28;20132;-66
2021/03/16 04:53:50;;;;;;;7.40;4.53;;;;;;;4.06;100.00;94979.44;5045778;28;20071;-66
2021/03/16 04:56:34;;;;;;;5.80;3.85;;;;;;;4.52;100.00;95041.63;5046232;28;20060;-66
2021/03/16 04:59:18;;;;;;;7.82;4.57;;;;;;;4.64;100.00;95066.03;5059960;28;20052;-66
2021/03/16 05:02:02;;;;;;;6.57;4.45;;;;;;;4.64;100.00;95070.72;5046991;28;20490;-65
2021/03/16 05:04:46;;;;;;;6.13;4.05;;;;;;;4.51;100.00;95042.81;5045424;28;20044;-66
2021/03/16 05:07:31;;;;;;;5.05;3.10;;;;;;;4.62;100.00;95068.34;5046446;28;20102;-64
2021/03/16 05:10:14;;;;;;;8.55;3.63;;;;;;;4.45;100.00;95047.06;5045910;28;20090;-65
2021/03/16 05:12:59;;;;;;;9.05;3.47;;;;;;;4.29;100.00;95043.81;5046412;28;20047;-64
2021/03/16 05:15:43;;;;;;;13.65;5.93;;;;;;;4.43;100.00;95076.81;5044921;28;20082;-64
2021/03/16 05:18:28;;;;;;;14.10;6.25;;;;;;;3.68;100.00;94969.72;5046364;28;20108;-65
2021/03/16 05:21:12;;;;;;;12.70;6.18;;;;;;;4.44;100.00;95089.34;5045668;28;20044;-65
2021/03/16 05:23:56;;;;;;;14.73;6.85;;;;;;;3.86;100.00;95008.97;5045195;28;20095;-64
2021/03/16 05:26:40;;;;;;;10.55;5.35;;;;;;;4.25;100.00;95066.88;5044803;28;20095;-66
2021/03/16 05:29:24;;;;;;;12.02;6.38;;;;;;;3.66;100.00;94968.50;5046138;28;20052;-67
2021/03/16 05:32:08;;;;;;;12.85;7.20;;;;;;;3.84;100.00;95011.31;5045584;28;20151;-69
2021/03/16 05:34:52;;;;;;;14.45;7.10;;;;;;;4.27;100.00;95087.22;5044594;28;20132;-67
2021/03/16 05:37:36;;;;;;;9.63;5.95;;;;;;;4.20;100.00;95086.38;5044892;28;20040;-66
2021/03/16 05:40:20;;;;;;;9.00;6.07;;;;;;;4.03;100.00;95063.13;5045299;28;20063;-69
2021/03/16 05:43:06;;;;;;;10.88;6.70;;;;;;;4.18;100.00;95085.97;5044973;28;20484;-69
2021/03/16 05:45:55;;;;;;;28.55;17.20;;;;;;;4.16;100.00;95067.16;5045577;28;20039;-69
2021/03/16 05:48:40;;;;;;;27.30;16.08;;;;;;;4.51;100.00;95061.19;5045824;28;20146;-67
2021/03/16 05:51:25;;;;;;;27.73;16.63;;;;;;;4.74;100.00;95082.94;5045505;28;20102;-69
2021/03/16 05:54:10;;;;;;;31.60;14.93;;;;;;;4.92;100.00;95084.63;5046005;28;20051;-67
2021/03/16 05:56:54;;;;;;;18.63;12.25;;;;;;;5.09;100.00;95085.91;5058111;28;20116;-68
2021/03/16 05:59:38;;;;;;;25.55;17.67;;;;;;;4.41;100.00;94942.09;5048546;28;20111;-70
2021/03/16 06:02:22;;;;;;;32.42;15.63;;;;;;;5.38;100.00;95090.38;5056847;28;20040;-70
2021/03/16 06:05:07;;;;;;;19.77;10.63;;;;;;;5.38;100.00;95071.16;5044966;28;20044;-70
2021/03/16 06:07:50;;;;;;;13.40;7.40;;;;;;;5.63;100.00;95088.53;5044384;28;20063;-70
2021/03/16 06:10:35;;;;;;;18.38;10.05;;;;;;;5.74;100.00;95094.84;5045351;28;20067;-70
2021/03/16 06:13:19;;;;;;;8.32;5.65;;;;;;;5.32;98.27;95045.25;5046079;28;20120;-69
2021/03/16 06:16:13;;;;;;;6.40;4.38;;;;;;;5.77;100.00;95110.56;5044962;28;20056;-68
2021/03/16 06:18:57;;;;;;;4.93;2.63;;;;;;;5.76;97.84;95106.22;5044281;28;20103;-69
2021/03/16 06:21:42;;;;;;;7.03;5.35;;;;;;;5.81;97.01;95116.84;5043597;28;20091;-67
2021/03/16 06:24:26;;;;;;;8.15;4.47;;;;;;;5.43;94.82;95040.59;5045701;28;20689;-68
2021/03/16 06:27:21;;;;;;;5.38;3.55;;;;;;;5.80;96.79;95110.56;5044679;28;20056;-68
2021/03/16 06:30:06;;;;;;;5.53;3.50;;;;;;;5.33;97.12;95064.09;5044727;28;20625;-67
2021/03/16 06:32:50;;;;;;;5.15;3.30;;;;;;;5.64;98.42;95109.34;5043882;28;20523;-70
2021/03/16 06:35:34;;;;;;;4.97;2.60;;;;;;;5.96;98.61;95124.00;5043901;28;20054;-66
2021/03/16 06:38:18;;;;;;;6.97;3.97;;;;;;;5.92;95.96;95139.69;5045245;28;20044;-66
2021/03/16 06:41:13;;;;;;;3.72;2.92;;;;;;;6.15;96.28;95126.41;5042405;28;20165;-70
2021/03/16 06:44:00;;;;;;;4.72;3.25;;;;;;;5.81;97.95;95133.34;5045114;28;20479;-67
2021/03/16 06:46:53;;;;;;;5.53;3.55;;;;;;;5.80;99.44;95148.25;5044319;28;20044;-69
2021/03/16 06:49:39;;;;;;;6.03;2.85;;;;;;;6.06;97.16;95134.25;5044659;28;20106;-69
2021/03/16 06:52:26;;;;;;;4.57;3.13;;;;;;;6.23;94.66;95141.75;5044337;28;20123;-69
2021/03/16 06:55:14;;;;;;;3.58;2.78;;;;;;;6.38;93.60;95145.31;5049378;28;20035;-70
2021/03/16 06:58:08;;;;;;;3.85;2.72;;;;;;;6.68;87.76;95137.50;5064375;28;20040;-66
2021/03/16 07:01:08;;;;;;;4.13;3.05;;;;;;;6.82;89.31;95132.03;5063877;28;20378;-69
2021/03/16 07:03:52;;;;;;;5.35;3.58;;;;;;;7.09;84.65;95141.47;5068290;28;20044;-68
2021/03/16 07:06:36;;;;;;;5.90;3.75;;;;;;;7.05;84.52;95127.69;5062938;28;20043;-69
2021/03/16 07:09:21;;;;;;;5.40;3.47;;;;;;;7.06;83.87;95090.75;5064385;28;20082;-69
2021/03/16 07:12:06;;;;;;;7.72;3.65;;;;;;;7.54;83.38;95135.88;5064040;28;20113;-69
2021/03/16 07:14:51;;;;;;;2.95;2.20;;;;;;;6.36;78.29;94939.53;5054731;28;20052;-64
2021/03/16 07:17:36;;;;;;;3.40;2.20;;;;;;;7.71;80.58;95129.53;5047166;28;20091;-65
2021/03/16 07:20:22;;;;;;;4.68;3.22;;;;;;;7.90;79.17;95141.28;5044991;28;20079;-65
2021/03/16 07:23:08;;;;;;;3.38;2.45;;;;;;;7.92;75.76;95150.72;5044463;28;20039;-67
2021/03/16 07:25:52;;;;;;;2.97;2.13;;;;;;;7.93;77.37;95157.03;5044053;28;20253;-67
2021/03/16 07:28:37;;;;;;;3.95;2.60;;;;;;;7.42;78.09;95144.56;5053783;28;20518;-66
2021/03/16 07:31:22;;;;;;;4.70;2.60;;;;;;;6.93;75.81;95001.50;5055729;28;20581;-66
2021/03/16 07:34:08;;;;;;;3.53;2.22;;;;;;;8.09;77.57;95135.31;5060145;28;20044;-64
2021/03/16 07:36:53;;;;;;;4.05;2.45;;;;;;;8.18;75.34;95136.44;5046312;28;20098;-66
2021/03/16 07:39:38;;;;;;;3.70;2.78;;;;;;;8.08;74.97;95092.41;5056825;28;20076;-67
2021/03/16 07:42:22;;;;;;;5.18;3.80;;;;;;;8.60;74.97;95143.75;5063469;28;20306;-71
2021/03/16 07:45:08;;;;;;;8.15;4.55;;;;;;;7.57;75.03;95041.41;5063479;28;20486;-69
2021/03/16 07:47:53;;;;;;;7.63;4.88;;;;;;;8.43;74.62;95108.75;5058074;28;20663;-71
2021/03/16 07:50:37;;;;;;;9.98;6.05;;;;;;;8.92;74.60;95147.84;5047674;28;20086;-67
2021/03/16 07:53:26;;;;;;;7.35;4.07;;;;;;;7.76;75.93;94973.25;5063879;28;20052;-70
2021/03/16 07:56:13;;;;;;;5.82;4.00;;;;;;;8.95;74.45;95146.25;5063337;28;20035;-66
2021/03/16 07:58:57;;;;;;;6.85;3.85;;;;;;;8.90;72.72;95154.94;5049448;28;20071;-64
2021/03/16 08:01:49;;;;;;;16.67;6.93;;;;;;;7.98;75.20;95027.06;5043140;28;20052;-65
2021/03/16 08:04:33;;;;;;;4.35;3.10;;;;;;;7.79;71.18;95091.72;5045838;28;20067;-69
2021/03/16 08:07:21;;;;;;;2.70;2.08;;;;;;;8.31;73.13;95161.63;5043535;28;20047;-62
2021/03/16 08:10:06;;;;;;;4.00;2.75;;;;;;;8.16;73.83;95168.34;5050566;28;20071;-66
2021/03/16 08:13:03;;;;;;;3.92;2.13;;;;;;;8.04;73.52;95166.03;5056514;28;20155;-66
2021/03/16 08:15:49;;;;;;;2.92;2.50;;;;;;;7.99;75.94;95160.94;5053745;28;20055;-68
2021/03/16 08:18:34;;;;;;;3.22;2.00;;;;;;;6.81;75.60;95004.66;5047516;28;20071;-67
2021/03/16 08:21:19;;;;;;;4.95;3.67;;;;;;;7.81;79.40;95160.22;5051506;28;20106;-63
2021/03/16 08:24:05;;;;;;;8.55;5.50;;;;;;;7.95;80.51;95171.97;5052912;28;20430;-65
2021/03/16 08:26:54;;;;;;;9.07;5.90;;;;;;;8.19;80.15;95162.06;5052470;28;20039;-66
2021/03/16 08:29:45;;;;;;;5.20;3.08;;;;;;;8.04;75.05;95157.78;5047263;28;20110;-64
2021/03/16 08:32:30;;;;;;;5.45;3.78;;;;;;;7.34;77.20;95076.91;5046977;28;20079;-64
2021/03/16 08:35:18;;;;;;;2.50;1.92;;;;;;;7.89;78.24;95151.53;5050113;28;20067;-63
2021/03/16 08:38:02;;;;;;;3.05;1.77;;;;;;;7.61;77.26;95113.84;5047227;28;20040;-65
2021/03/16 08:41:01;;;;;;;3.38;1.60;;;;;;;6.71;77.66;95060.50;5052447;28;20086;-67
2021/03/16 08:43:49;;;;;;;2.28;1.75;;;;;;;7.23;78.05;95120.22;5047131;28;20432;-67
2021/03/16 08:46:36;;;;;;;12.02;6.40;;;;;;;7.52;80.41;95141.00;5062190;28;20043;-65
2021/03/16 08:49:23;;;;;;;2.45;1.80;;;;;;;7.76;78.88;95168.91;5060905;28;20210;-62
2021/03/16 08:52:22;;;;;;;2.15;1.90;;;;;;;7.59;77.84;95171.28;5066565;28;20040;-64
2021/03/16 08:55:07;;;;;;;3.35;2.60;;;;;;;7.65;78.73;95164.19;5060334;28;20472;-64
2021/03/16 08:57:52;;;;;;;4.65;2.83;;;;;;;7.06;78.65;95049.47;5046988;28;20039;-66
2021/03/16 09:00:38;;;;;;;5.32;2.25;;;;;;;7.83;79.23;95157.84;5046286;28;20048;-64
2021/03/16 09:03:30;;;;;;;2.30;1.67;;;;;;;7.72;76.82;95188.97;5050732;28;20039;-66
2021/03/16 09:06:21;;;;;;;18.60;9.93;;;;;;;7.89;80.08;95164.53;5064284;28;20070;-65
2021/03/16 09:09:06;;;;;;;4.72;3.42;;;;;;;7.69;78.21;95120.91;5063275;28;20183;-62
2021/03/16 09:11:51;;;;;;;3.15;2.08;;;;;;;8.35;75.43;95167.91;5057520;28;20099;-65
2021/03/16 09:14:35;;;;;;;33.58;13.38;;;;;;;8.70;79.48;95164.94;5052744;28;20047;-63
2021/03/16 09:17:20;;;;;;;3.20;2.63;;;;;;;8.85;71.88;95163.69;5046606;28;20057;-69
2021/03/16 09:20:20;;;;;;;4.35;2.30;;;;;;;8.87;71.69;95161.28;5055897;28;20048;-62
2021/03/16 09:23:09;;;;;;;2.72;2.08;;;;;;;9.30;71.01;95162.53;5046066;28;20091;-64
2021/03/16 09:25:54;;;;;;;1.58;1.33;;;;;;;9.54;68.61;95155.22;5044720;28;20039;-63
2021/03/16 09:28:38;;;;;;;8.40;4.45;;;;;;;9.19;71.14;95104.63;5046828;28;20048;-62
2021/03/16 09:31:23;;;;;;;5.93;4.20;;;;;;;9.51;70.42;95136.69;5046128;28;20109;-63
2021/03/16 09:34:07;;;;;;;2.17;1.77;;;;;;;10.09;64.73;95164.94;5046431;28;20529;-62
2021/03/16 09:37:02;;;;;;;2.45;1.50;;;;;;;9.99;64.46;95121.53;5044448;28;20043;-63
2021/03/16 09:39:52;;;;;;;3.22;1.92;;;;;;;10.20;63.77;95160.06;5045801;28;20075;-63
2021/03/16 09:42:49;;;;;;;72.35;31.75;;;;;;;10.35;65.52;95150.38;5044613;28;20057;-63
2021/03/16 09:45:33;;;;;;;11.15;2.75;;;;;;;10.28;63.31;95178.13;5045475;28;20075;-63
2021/03/16 09:48:19;;;;;;;4.72;2.88;;;;;;;9.78;64.53;95152.22;5045924;28;20147;-63
2021/03/16 09:51:29;;;;;;;6.68;4.43;;;;;;;9.94;65.58;95180.06;5045572;28;20083;-62
2021/03/16 09:54:13;;;;;;;4.90;3.20;;;;;;;9.82;64.98;95194.41;5044846;28;20056;-63
2021/03/16 09:56:57;;;;;;;4.88;3.20;;;;;;;9.26;66.20;95101.03;5054864;28;20043;-63
2021/03/16 09:59:43;;;;;;;3.72;2.92;;;;;;;9.75;67.00;95186.22;5065479;28;20468;-63
2021/03/16 10:02:35;;;;;;;3.20;1.67;;;;;;;9.50;66.25;95193.94;5064896;28;20039;-63
2021/03/16 10:05:20;;;;;;;5.05;2.40;;;;;;;9.21;67.05;95198.13;5065171;28;20123;-61
2021/03/16 10:08:04;;;;;;;2.13;1.67;;;;;;;8.62;68.09;95144.09;5065340;28;20035;-63
2021/03/16 10:10:49;;;;;;;2.65;2.00;;;;;;;7.82;68.32;95046.03;5048148;28;20605;-62
2021/03/16 10:13:37;;;;;;;10.18;5.28;;;;;;;8.73;71.37;95194.50;5044138;28;20032;-62
2021/03/16 10:16:21;;;;;;;2.97;2.00;;;;;;;8.53;71.76;95190.69;5057790;28;20414;-63
2021/03/16 10:19:05;;;;;;;5.07;2.90;;;;;;;8.48;73.77;95199.38;5058713;28;20356;-63
2021/03/16 10:21:50;;;;;;;5.78;2.10;;;;;;;7.99;72.12;95171.97;5045019;28;20102;-63
2021/03/16 10:24:34;;;;;;;2.22;1.70;;;;;;;7.30;73.71;95111.91;5045720;28;20056;-63
2021/03/16 10:27:26;;;;;;;4.75;2.88;;;;;;;7.91;76.55;95211.75;5044427;28;20102;-62
2021/03/16 10:30:10;;;;;;;5.25;3.00;;;;;;;7.85;75.72;95213.34;5044585;28;20032;-63
2021/03/16 10:32:54;;;;;;;4.47;3.08;;;;;;;7.81;77.23;95220.84;5045381;28;20102;-62
2021/03/16 10:35:41;;;;;;;2.10;1.48;;;;;;;7.84;74.53;95217.31;5044569;28;20039;-63
2021/03/16 10:38:29;;;;;;;3.00;1.73;;;;;;;7.84;72.67;95220.06;5044792;28;20119;-64
2021/03/16 10:41:12;;;;;;;1.65;1.25;;;;;;;7.74;71.62;95216.91;5044251;28;20063;-63
2021/03/16 10:43:57;;;;;;;1.67;1.50;;;;;;;7.97;73.40;95230.25;5058419;28;20048;-65
2021/03/16 10:46:40;;;;;;;4.20;2.63;;;;;;;8.03;74.00;95211.34;5044234;28;20116;-64
2021/03/16 10:49:24;;;;;;;1.50;1.20;;;;;;;8.29;71.64;95219.16;5044757;28;20122;-65
2021/03/16 10:52:08;;;;;;;4.82;3.45;;;;;;;8.39;73.34;95230.16;5043316;28;20543;-64
2021/03/16 10:54:52;;;;;;;6.05;3.17;;;;;;;8.40;73.72;95225.41;5043455;28;20083;-64
2021/03/16 10:57:36;;;;;;;4.78;3.10;;;;;;;8.44;71.33;95215.94;5068284;28;20172;-63
2021/03/16 11:00:21;;;;;;;14.05;11.23;;;;;;;8.42;70.25;95223.06;5063934;28;20086;-64
2021/03/16 11:03:05;;;;;;;10.48;6.72;;;;;;;8.25;73.07;95218.41;5064248;28;20117;-64
2021/03/16 11:05:49;;;;;;;3.38;2.13;;;;;;;8.22;70.20;95219.94;5063976;28;20055;-64
2021/03/16 11:08:33;;;;;;;5.30;3.40;;;;;;;8.26;68.90;95231.00;5063435;28;20110;-65
2021/03/16 11:11:18;;;;;;;2.03;1.05;;;;;;;8.39;65.04;95229.38;5042437;28;20032;-64
2021/03/16 11:14:02;;;;;;;5.10;2.70;;;;;;;8.03;68.06;95145.94;5044139;28;20202;-63
2021/03/16 11:16:46;;;;;;;6.60;3.67;;;;;;;8.23;69.65;95143.53;5043948;28;20051;-63
2021/03/16 11:19:30;;;;;;;6.05;3.55;;;;;;;8.56;68.98;95156.75;5044129;28;20052;-65
2021/03/16 11:22:14;;;;;;;4.10;2.33;;;;;;;9.15;64.46;95213.56;5042238;28;20261;-63
2021/03/16 11:24:58;;;;;;;2.50;2.25;;;;;;;9.04;64.36;95210.09;5043764;28;20118;-63
2021/03/16 11:27:41;;;;;;;3.83;2.17;;;;;;;8.92;65.17;95216.06;5042784;28;20136;-63
2021/03/16 11:30:29;;;;;;;2.50;2.28;;;;;;;8.57;63.71;95191.44;5044016;28;20032;-63
2021/03/16 11:33:13;;;;;;;5.07;3.17;;;;;;;8.32;64.79;95135.59;5043194;28;20078;-63
2021/03/16 11:35:58;;;;;;;5.38;2.88;;;;;;;8.69;63.95;95216.59;5042404;28;20551;-63
2021/03/16 11:38:42;;;;;;;7.85;5.38;;;;;;;8.82;69.25;95208.66;5043854;28;20102;-63
2021/03/16 11:41:26;;;;;;;4.97;3.47;;;;;;;8.99;69.23;95202.25;5042617;28;20071;-64
2021/03/16 11:44:10;;;;;;;4.60;3.25;;;;;;;8.88;63.74;95154.59;5044030;28;20557;-64
2021/03/16 11:46:55;;;;;;;4.50;1.60;;;;;;;7.56;62.16;95012.31;5043496;28;20210;-63
2021/03/16 11:49:38;;;;;;;5.32;3.42;;;;;;;9.25;63.11;95198.88;5043409;28;20044;-66
2021/03/16 11:52:22;;;;;;;2.90;1.90;;;;;;;9.51;64.32;95206.56;5043459;28;20044;-65
2021/03/16 11:55:07;;;;;;;3.35;1.73;;;;;;;9.61;62.04;95205.66;5043150;28;20098;-65
2021/03/16 11:57:51;;;;;;;4.72;3.28;;;;;;;9.46;63.21;95197.91;5056462;28;20047;-65
2021/03/16 12:00:35;;;;;;;1.50;1.40;;;;;;;9.35;61.80;95203.53;5062291;28;20554;-64
2021/03/16 12:03:20;;;;;;;2.15;1.70;;;;;;;8.96;63.59;95164.41;5063351;28;20151;-65
2021/03/16 12:06:04;;;;;;;1.48;1.20;;;;;;;9.42;61.82;95203.47;5061588;28;20093;-65
2021/03/16 12:08:48;;;;;;;3.55;2.40;;;;;;;9.63;62.86;95202.50;5062276;28;20039;-65
2021/03/16 12:11:32;;;;;;;2.22;1.67;;;;;;;9.63;60.86;95217.13;5062001;28;20039;-65
2021/03/16 12:14:16;;;;;;;3.42;2.85;;;;;;;8.94;61.70;95161.25;5063794;28;20090;-64
2021/03/16 12:17:01;;;;;;;5.05;2.38;;;;;;;9.24;62.05;95219.41;5062412;28;21173;-65
2021/03/16 12:19:45;;;;;;;3.28;2.67;;;;;;;9.18;62.57;95223.81;5062428;28;20131;-64
2021/03/16 12:22:29;;;;;;;11.13;6.93;;;;;;;9.24;62.85;95208.38;5062910;28;20090;-64
2021/03/16 12:25:13;;;;;;;5.82;3.90;;;;;;;9.27;61.97;95213.06;5062615;28;20035;-64
2021/03/16 12:27:57;;;;;;;2.78;2.25;;;;;;;6.94;61.46;94843.47;5062065;28;20043;-66
2021/03/16 12:30:41;;;;;;;2.92;2.17;;;;;;;9.42;59.96;95211.75;5075754;28;20051;-65
2021/03/16 12:33:25;;;;;;;6.22;3.20;;;;;;;9.55;58.83;95218.38;5062943;28;20055;-65
2021/03/16 12:36:10;;;;;;;8.52;5.13;;;;;;;9.23;59.81;95168.13;5057048;28;20114;-65
2021/03/16 12:38:54;;;;;;;4.75;2.83;;;;;;;8.85;59.04;95138.84;5046972;28;20044;-65
2021/03/16 12:41:38;;;;;;;3.33;2.90;;;;;;;9.74;57.70;95215.03;5047795;28;20068;-68
2021/03/16 12:44:22;;;;;;;2.33;2.05;;;;;;;9.77;56.38;95224.50;5047824;28;20407;-67
2021/03/16 12:47:06;;;;;;;8.10;4.78;;;;;;;9.28;60.09;95198.06;5056887;28;20513;-67
2021/03/16 12:49:51;;;;;;;9.93;6.32;;;;;;;9.72;61.29;95231.25;5063082;28;20044;-64
2021/03/16 12:52:35;;;;;;;11.52;3.90;;;;;;;9.60;57.58;95231.75;5068957;28;20265;-65
2021/03/16 12:55:19;;;;;;;4.38;3.42;;;;;;;9.28;59.58;95245.03;5052516;28;20032;-66
2021/03/16 12:58:04;;;;;;;6.55;3.88;;;;;;;8.94;58.90;95199.91;5046910;28;20146;-66
2021/03/16 13:00:48;;;;;;;;;;;;;;;9.23;59.55;95237.19;5054123;28;20203;-66